sensor_id;sensor_type;location;lat;lon;timestamp;temperature;humidity
61004;DHT22;46889;37.310;13.582;2023-02-03T00:01:38;9.40;99.90
61004;DHT22;46889;37.310;13.582;2023-02-03T00:04:04;9.60;99.90
61004;DHT22;46889;37.310;13.582;2023-02-03T00:06:31;9.50;99.90
61004;DHT22;46889;37.310;13.582;2023-02-03T00:08:58;9.50;99.90
61004;DHT22;46889;37.310;13.582;2023-02-03T00:11:25;9.50;99.90
61004;DHT22;46889;37.310;13.582;2023-02-03T00:13:52;9.60;99.90
61004;DHT22;46889;37.310;13.582;2023-02-03T00:16:18;9.50;99.90
61004;DHT22;46889;37.310;13.582;2023-02-03T00:18:44;9.40;99.90
61004;DHT22;46889;37.310;13.582;2023-02-03T00:21:10;9.40;99.90
61004;DHT22;46889;37.310;13.582;2023-02-03T00:23:39;9.40;99.90
61004;DHT22;46889;37.310;13.582;2023-02-03T00:26:07;9.40;99.90
61004;DHT22;46889;37.310;13.582;2023-02-03T00:28:33;9.40;99.90
61004;DHT22;46889;37.310;13.582;2023-02-03T00:30:59;9.40;99.90
61004;DHT22;46889;37.310;13.582;2023-02-03T00:33:25;9.40;99.90
61004;DHT22;46889;37.310;13.582;2023-02-03T00:35:51;9.40;99.90
61004;DHT22;46889;37.310;13.582;2023-02-03T00:38:17;9.40;99.90
61004;DHT22;46889;37.310;13.582;2023-02-03T00:40:51;9.30;99.90
61004;DHT22;46889;37.310;13.582;2023-02-03T00:43:18;9.30;99.90
61004;DHT22;46889;37.310;13.582;2023-02-03T00:45:46;9.30;99.90
61004;DHT22;46889;37.310;13.582;2023-02-03T00:48:12;9.30;99.90
61004;DHT22;46889;37.310;13.582;2023-02-03T00:50:39;9.30;99.90
61004;DHT22;46889;37.310;13.582;2023-02-03T00:53:06;9.20;99.90
61004;DHT22;46889;37.310;13.582;2023-02-03T00:55:32;9.20;99.90
61004;DHT22;46889;37.310;13.582;2023-02-03T00:57:58;9.20;99.90
61004;DHT22;46889;37.310;13.582;2023-02-03T01:00:24;9.20;99.90
61004;DHT22;46889;37.310;13.582;2023-02-03T01:02:50;9.10;99.90
61004;DHT22;46889;37.310;13.582;2023-02-03T01:05:17;9.10;99.90
61004;DHT22;46889;37.310;13.582;2023-02-03T01:07:44;9.10;99.90
61004;DHT22;46889;37.310;13.582;2023-02-03T01:10:10;9.10;99.90
61004;DHT22;46889;37.310;13.582;2023-02-03T01:12:37;9.20;99.90
61004;DHT22;46889;37.310;13.582;2023-02-03T01:15:04;9.20;99.90
61004;DHT22;46889;37.310;13.582;2023-02-03T01:17:31;9.20;99.90
61004;DHT22;46889;37.310;13.582;2023-02-03T01:19:58;9.20;99.90
61004;DHT22;46889;37.310;13.582;2023-02-03T01:22:24;9.10;99.90
61004;DHT22;46889;37.310;13.582;2023-02-03T01:24:50;9.10;99.90
61004;DHT22;46889;37.310;13.582;2023-02-03T01:27:16;9.10;99.90
61004;DHT22;46889;37.310;13.582;2023-02-03T01:29:42;9.10;99.90
61004;DHT22;46889;37.310;13.582;2023-02-03T01:32:08;9.10;99.90
61004;DHT22;46889;37.310;13.582;2023-02-03T01:34:34;9.10;99.90
61004;DHT22;46889;37.310;13.582;2023-02-03T01:37:00;9.10;99.90
61004;DHT22;46889;37.310;13.582;2023-02-03T01:39:26;9.10;99.90
61004;DHT22;46889;37.310;13.582;2023-02-03T01:41:54;9.10;99.90
61004;DHT22;46889;37.310;13.582;2023-02-03T01:44:45;9.10;99.90
61004;DHT22;46889;37.310;13.582;2023-02-03T01:47:26;9.10;99.90
61004;DHT22;46889;37.310;13.582;2023-02-03T01:50:23;9.00;99.90
61004;DHT22;46889;37.310;13.582;2023-02-03T01:52:55;9.10;99.90
61004;DHT22;46889;37.310;13.582;2023-02-03T01:55:27;9.00;99.90
61004;DHT22;46889;37.310;13.582;2023-02-03T01:58:11;9.10;99.90
61004;DHT22;46889;37.310;13.582;2023-02-03T02:00:38;9.10;99.90
61004;DHT22;46889;37.310;13.582;2023-02-03T02:03:05;9.00;99.90
61004;DHT22;46889;37.310;13.582;2023-02-03T02:05:37;9.10;99.90
61004;DHT22;46889;37.310;13.582;2023-02-03T02:08:04;9.20;99.90
61004;DHT22;46889;37.310;13.582;2023-02-03T02:10:32;9.20;99.90
61004;DHT22;46889;37.310;13.582;2023-02-03T02:13:01;9.30;99.90
61004;DHT22;46889;37.310;13.582;2023-02-03T02:24:29;9.20;99.90
61004;DHT22;46889;37.310;13.582;2023-02-03T02:35:03;9.20;99.90
61004;DHT22;46889;37.310;13.582;2023-02-03T02:37:52;9.20;99.90
61004;DHT22;46889;37.310;13.582;2023-02-03T02:43:25;9.30;99.90
61004;DHT22;46889;37.310;13.582;2023-02-03T02:46:00;9.30;99.90
61004;DHT22;46889;37.310;13.582;2023-02-03T02:51:15;9.40;99.90
61004;DHT22;46889;37.310;13.582;2023-02-03T02:53:53;9.40;99.90
61004;DHT22;46889;37.310;13.582;2023-02-03T02:56:23;9.50;99.90
61004;DHT22;46889;37.310;13.582;2023-02-03T02:58:50;9.40;99.90
61004;DHT22;46889;37.310;13.582;2023-02-03T03:01:18;9.40;99.90
61004;DHT22;46889;37.310;13.582;2023-02-03T03:03:44;9.50;99.90
61004;DHT22;46889;37.310;13.582;2023-02-03T03:06:24;9.50;99.90
61004;DHT22;46889;37.310;13.582;2023-02-03T03:09:04;9.40;99.90
61004;DHT22;46889;37.310;13.582;2023-02-03T03:11:39;9.40;99.90
61004;DHT22;46889;37.310;13.582;2023-02-03T03:14:10;9.30;99.90
61004;DHT22;46889;37.310;13.582;2023-02-03T03:16:38;9.30;99.90
61004;DHT22;46889;37.310;13.582;2023-02-03T03:19:14;9.30;99.90
61004;DHT22;46889;37.310;13.582;2023-02-03T03:22:03;9.30;99.90
61004;DHT22;46889;37.310;13.582;2023-02-03T03:24:44;9.30;99.90
61004;DHT22;46889;37.310;13.582;2023-02-03T03:27:25;9.30;99.90
61004;DHT22;46889;37.310;13.582;2023-02-03T03:30:02;9.20;99.90
61004;DHT22;46889;37.310;13.582;2023-02-03T03:32:30;9.20;99.90
61004;DHT22;46889;37.310;13.582;2023-02-03T03:34:58;9.30;99.90
61004;DHT22;46889;37.310;13.582;2023-02-03T03:37:35;9.40;99.90
61004;DHT22;46889;37.310;13.582;2023-02-03T03:40:35;9.30;99.90
61004;DHT22;46889;37.310;13.582;2023-02-03T03:43:10;9.30;99.90
61004;DHT22;46889;37.310;13.582;2023-02-03T03:50:56;9.20;99.90
61004;DHT22;46889;37.310;13.582;2023-02-03T03:53:23;9.30;99.90
61004;DHT22;46889;37.310;13.582;2023-02-03T03:55:52;9.20;99.90
61004;DHT22;46889;37.310;13.582;2023-02-03T03:58:29;9.10;99.90
61004;DHT22;46889;37.310;13.582;2023-02-03T04:01:00;9.00;99.90
61004;DHT22;46889;37.310;13.582;2023-02-03T04:03:48;9.10;99.90
61004;DHT22;46889;37.310;13.582;2023-02-03T04:06:15;9.10;99.90
61004;DHT22;46889;37.310;13.582;2023-02-03T04:08:41;9.10;99.90
61004;DHT22;46889;37.310;13.582;2023-02-03T04:11:07;9.10;99.90
61004;DHT22;46889;37.310;13.582;2023-02-03T04:13:33;9.20;99.90
61004;DHT22;46889;37.310;13.582;2023-02-03T04:15:59;9.10;99.90
61004;DHT22;46889;37.310;13.582;2023-02-03T04:18:26;9.20;99.90
61004;DHT22;46889;37.310;13.582;2023-02-03T04:20:52;9.20;99.90
61004;DHT22;46889;37.310;13.582;2023-02-03T04:23:18;9.10;99.90
61004;DHT22;46889;37.310;13.582;2023-02-03T04:25:44;9.10;99.90
61004;DHT22;46889;37.310;13.582;2023-02-03T04:28:09;9.10;99.90
61004;DHT22;46889;37.310;13.582;2023-02-03T04:30:35;9.10;99.90
61004;DHT22;46889;37.310;13.582;2023-02-03T04:33:02;9.20;99.90
61004;DHT22;46889;37.310;13.582;2023-02-03T04:35:28;9.20;99.90
61004;DHT22;46889;37.310;13.582;2023-02-03T04:37:54;9.20;99.90
61004;DHT22;46889;37.310;13.582;2023-02-03T04:40:20;9.20;99.90
61004;DHT22;46889;37.310;13.582;2023-02-03T04:42:46;9.20;99.90
61004;DHT22;46889;37.310;13.582;2023-02-03T04:45:12;9.20;99.90
61004;DHT22;46889;37.310;13.582;2023-02-03T04:47:39;9.20;99.90
61004;DHT22;46889;37.310;13.582;2023-02-03T04:50:05;9.10;99.90
61004;DHT22;46889;37.310;13.582;2023-02-03T04:52:32;9.10;99.90
61004;DHT22;46889;37.310;13.582;2023-02-03T04:54:58;9.00;99.90
61004;DHT22;46889;37.310;13.582;2023-02-03T04:57:24;9.00;99.90
61004;DHT22;46889;37.310;13.582;2023-02-03T04:59:50;9.00;99.90
61004;DHT22;46889;37.310;13.582;2023-02-03T05:02:16;9.10;99.90
61004;DHT22;46889;37.310;13.582;2023-02-03T05:04:42;9.00;99.90
61004;DHT22;46889;37.310;13.582;2023-02-03T05:07:09;9.00;99.90
61004;DHT22;46889;37.310;13.582;2023-02-03T05:09:35;9.00;99.90
61004;DHT22;46889;37.310;13.582;2023-02-03T05:12:01;9.00;99.90
61004;DHT22;46889;37.310;13.582;2023-02-03T05:14:27;9.00;99.90
61004;DHT22;46889;37.310;13.582;2023-02-03T05:16:53;9.10;99.90
61004;DHT22;46889;37.310;13.582;2023-02-03T05:19:19;9.10;99.90
61004;DHT22;46889;37.310;13.582;2023-02-03T05:21:45;9.10;99.90
61004;DHT22;46889;37.310;13.582;2023-02-03T05:24:11;9.20;99.90
61004;DHT22;46889;37.310;13.582;2023-02-03T05:26:38;9.20;99.90
61004;DHT22;46889;37.310;13.582;2023-02-03T05:29:04;9.20;99.90
61004;DHT22;46889;37.310;13.582;2023-02-03T05:31:31;9.20;99.90
61004;DHT22;46889;37.310;13.582;2023-02-03T05:33:59;9.20;99.90
61004;DHT22;46889;37.310;13.582;2023-02-03T05:36:25;9.20;99.90
61004;DHT22;46889;37.310;13.582;2023-02-03T05:38:53;9.20;99.90
61004;DHT22;46889;37.310;13.582;2023-02-03T05:41:19;9.30;99.90
61004;DHT22;46889;37.310;13.582;2023-02-03T05:44:04;9.30;99.90
61004;DHT22;46889;37.310;13.582;2023-02-03T05:46:31;9.30;99.90
61004;DHT22;46889;37.310;13.582;2023-02-03T05:48:57;9.40;99.90
61004;DHT22;46889;37.310;13.582;2023-02-03T05:51:23;9.40;99.90
61004;DHT22;46889;37.310;13.582;2023-02-03T05:53:50;9.40;99.90
61004;DHT22;46889;37.310;13.582;2023-02-03T05:56:17;9.50;99.90
61004;DHT22;46889;37.310;13.582;2023-02-03T05:58:43;9.50;99.90
61004;DHT22;46889;37.310;13.582;2023-02-03T06:01:09;9.50;99.90
61004;DHT22;46889;37.310;13.582;2023-02-03T06:03:36;9.50;99.90
61004;DHT22;46889;37.310;13.582;2023-02-03T06:06:02;9.50;99.90
61004;DHT22;46889;37.310;13.582;2023-02-03T06:08:28;9.60;99.90
61004;DHT22;46889;37.310;13.582;2023-02-03T06:10:58;9.60;99.90
61004;DHT22;46889;37.310;13.582;2023-02-03T06:13:26;9.60;99.90
61004;DHT22;46889;37.310;13.582;2023-02-03T06:15:52;9.50;99.90
61004;DHT22;46889;37.310;13.582;2023-02-03T06:18:18;9.50;99.90
61004;DHT22;46889;37.310;13.582;2023-02-03T06:20:44;9.40;99.90
61004;DHT22;46889;37.310;13.582;2023-02-03T06:23:11;9.40;99.90
61004;DHT22;46889;37.310;13.582;2023-02-03T06:25:37;9.40;99.90
61004;DHT22;46889;37.310;13.582;2023-02-03T06:28:03;9.40;99.90
61004;DHT22;46889;37.310;13.582;2023-02-03T06:30:29;9.40;99.90
61004;DHT22;46889;37.310;13.582;2023-02-03T06:32:55;9.80;99.90
61004;DHT22;46889;37.310;13.582;2023-02-03T06:35:22;10.30;99.90
61004;DHT22;46889;37.310;13.582;2023-02-03T06:37:48;10.80;99.90
61004;DHT22;46889;37.310;13.582;2023-02-03T06:40:13;11.50;99.90
61004;DHT22;46889;37.310;13.582;2023-02-03T06:42:39;12.40;99.90
61004;DHT22;46889;37.310;13.582;2023-02-03T06:45:09;13.30;99.90
61004;DHT22;46889;37.310;13.582;2023-02-03T06:47:39;14.10;99.90
61004;DHT22;46889;37.310;13.582;2023-02-03T06:50:05;14.50;99.90
61004;DHT22;46889;37.310;13.582;2023-02-03T06:52:31;14.70;99.90
61004;DHT22;46889;37.310;13.582;2023-02-03T06:54:57;14.50;99.90
61004;DHT22;46889;37.310;13.582;2023-02-03T06:57:23;14.40;99.90
61004;DHT22;46889;37.310;13.582;2023-02-03T06:59:49;14.50;99.90
61004;DHT22;46889;37.310;13.582;2023-02-03T07:02:15;15.00;99.90
61004;DHT22;46889;37.310;13.582;2023-02-03T07:04:42;15.50;99.90
61004;DHT22;46889;37.310;13.582;2023-02-03T07:07:11;16.20;99.90
61004;DHT22;46889;37.310;13.582;2023-02-03T07:09:38;16.00;99.90
61004;DHT22;46889;37.310;13.582;2023-02-03T07:12:05;15.30;99.90
61004;DHT22;46889;37.310;13.582;2023-02-03T07:14:31;15.10;99.90
61004;DHT22;46889;37.310;13.582;2023-02-03T07:16:57;15.00;99.90
61004;DHT22;46889;37.310;13.582;2023-02-03T07:19:23;15.10;99.90
61004;DHT22;46889;37.310;13.582;2023-02-03T07:21:51;15.40;99.90
61004;DHT22;46889;37.310;13.582;2023-02-03T07:24:17;15.30;99.90
61004;DHT22;46889;37.310;13.582;2023-02-03T07:26:43;15.30;99.90
61004;DHT22;46889;37.310;13.582;2023-02-03T07:29:09;16.20;99.90
61004;DHT22;46889;37.310;13.582;2023-02-03T07:31:35;17.60;99.90
61004;DHT22;46889;37.310;13.582;2023-02-03T07:34:01;18.00;99.90
61004;DHT22;46889;37.310;13.582;2023-02-03T07:36:27;17.30;99.90
61004;DHT22;46889;37.310;13.582;2023-02-03T07:38:53;16.90;99.90
61004;DHT22;46889;37.310;13.582;2023-02-03T07:41:20;17.50;99.90
61004;DHT22;46889;37.310;13.582;2023-02-03T07:43:47;18.20;99.90
61004;DHT22;46889;37.310;13.582;2023-02-03T07:46:13;18.50;99.90
61004;DHT22;46889;37.310;13.582;2023-02-03T07:48:39;18.90;99.90
61004;DHT22;46889;37.310;13.582;2023-02-03T07:51:05;19.20;99.90
61004;DHT22;46889;37.310;13.582;2023-02-03T07:53:32;20.40;99.90
61004;DHT22;46889;37.310;13.582;2023-02-03T07:56:04;19.80;99.90
61004;DHT22;46889;37.310;13.582;2023-02-03T07:58:31;18.80;99.90
61004;DHT22;46889;37.310;13.582;2023-02-03T08:00:58;18.10;99.90
61004;DHT22;46889;37.310;13.582;2023-02-03T08:03:24;17.40;99.90
61004;DHT22;46889;37.310;13.582;2023-02-03T08:05:51;16.80;99.90
61004;DHT22;46889;37.310;13.582;2023-02-03T08:08:18;16.00;99.90
61004;DHT22;46889;37.310;13.582;2023-02-03T08:10:44;15.90;99.90
61004;DHT22;46889;37.310;13.582;2023-02-03T08:13:10;15.60;99.90
61004;DHT22;46889;37.310;13.582;2023-02-03T08:15:36;15.20;99.90
61004;DHT22;46889;37.310;13.582;2023-02-03T08:18:02;15.40;99.90
61004;DHT22;46889;37.310;13.582;2023-02-03T08:20:28;15.10;99.90
61004;DHT22;46889;37.310;13.582;2023-02-03T08:22:54;15.20;99.90
61004;DHT22;46889;37.310;13.582;2023-02-03T08:25:20;15.40;99.90
61004;DHT22;46889;37.310;13.582;2023-02-03T08:27:47;15.40;99.90
61004;DHT22;46889;37.310;13.582;2023-02-03T08:30:14;15.20;99.90
61004;DHT22;46889;37.310;13.582;2023-02-03T08:32:40;15.10;99.90
61004;DHT22;46889;37.310;13.582;2023-02-03T08:35:06;15.00;99.90
61004;DHT22;46889;37.310;13.582;2023-02-03T08:37:32;14.90;99.90
61004;DHT22;46889;37.310;13.582;2023-02-03T08:39:59;15.00;99.90
61004;DHT22;46889;37.310;13.582;2023-02-03T08:42:25;14.80;99.90
61004;DHT22;46889;37.310;13.582;2023-02-03T08:44:52;14.60;99.90
61004;DHT22;46889;37.310;13.582;2023-02-03T08:47:18;14.40;99.90
61004;DHT22;46889;37.310;13.582;2023-02-03T08:49:44;14.50;99.90
61004;DHT22;46889;37.310;13.582;2023-02-03T08:52:12;14.70;99.90
61004;DHT22;46889;37.310;13.582;2023-02-03T08:54:38;14.80;99.90
61004;DHT22;46889;37.310;13.582;2023-02-03T08:57:04;14.50;99.90
61004;DHT22;46889;37.310;13.582;2023-02-03T08:59:32;14.20;99.90
61004;DHT22;46889;37.310;13.582;2023-02-03T09:02:02;14.10;99.90
61004;DHT22;46889;37.310;13.582;2023-02-03T09:04:29;13.90;99.90
61004;DHT22;46889;37.310;13.582;2023-02-03T09:06:55;14.00;99.90
61004;DHT22;46889;37.310;13.582;2023-02-03T09:09:22;14.20;99.90
61004;DHT22;46889;37.310;13.582;2023-02-03T09:11:48;14.10;99.90
61004;DHT22;46889;37.310;13.582;2023-02-03T09:14:14;14.10;99.90
61004;DHT22;46889;37.310;13.582;2023-02-03T09:16:40;14.20;99.90
61004;DHT22;46889;37.310;13.582;2023-02-03T09:19:06;14.30;99.90
61004;DHT22;46889;37.310;13.582;2023-02-03T09:21:32;14.50;99.90
61004;DHT22;46889;37.310;13.582;2023-02-03T09:24:02;14.60;99.90
61004;DHT22;46889;37.310;13.582;2023-02-03T09:26:29;14.70;99.90
61004;DHT22;46889;37.310;13.582;2023-02-03T09:28:55;14.70;99.90
61004;DHT22;46889;37.310;13.582;2023-02-03T09:31:21;14.60;99.90
61004;DHT22;46889;37.310;13.582;2023-02-03T09:33:47;14.50;99.90
61004;DHT22;46889;37.310;13.582;2023-02-03T09:36:14;14.30;99.90
61004;DHT22;46889;37.310;13.582;2023-02-03T09:38:40;14.40;99.90
61004;DHT22;46889;37.310;13.582;2023-02-03T09:44:03;14.40;99.90
61004;DHT22;46889;37.310;13.582;2023-02-03T09:46:39;14.30;99.90
61004;DHT22;46889;37.310;13.582;2023-02-03T09:49:15;14.20;99.90
61004;DHT22;46889;37.310;13.582;2023-02-03T09:51:53;14.30;99.90
61004;DHT22;46889;37.310;13.582;2023-02-03T09:56:59;14.50;99.90
61004;DHT22;46889;37.310;13.582;2023-02-03T09:59:26;14.50;99.90
61004;DHT22;46889;37.310;13.582;2023-02-03T10:07:50;14.50;99.90
61004;DHT22;46889;37.310;13.582;2023-02-03T10:16:14;14.40;99.90
61004;DHT22;46889;37.310;13.582;2023-02-03T10:18:50;14.40;99.90
61004;DHT22;46889;37.310;13.582;2023-02-03T10:21:42;14.50;99.90
61004;DHT22;46889;37.310;13.582;2023-02-03T10:24:16;14.50;99.90
61004;DHT22;46889;37.310;13.582;2023-02-03T10:26:44;14.60;99.90
61004;DHT22;46889;37.310;13.582;2023-02-03T10:29:41;14.80;99.90
61004;DHT22;46889;37.310;13.582;2023-02-03T10:32:11;15.20;99.90
61004;DHT22;46889;37.310;13.582;2023-02-03T10:34:38;15.30;99.90
61004;DHT22;46889;37.310;13.582;2023-02-03T10:37:27;15.40;99.90
61004;DHT22;46889;37.310;13.582;2023-02-03T10:39:55;15.70;99.90
61004;DHT22;46889;37.310;13.582;2023-02-03T10:42:22;15.70;99.90
61004;DHT22;46889;37.310;13.582;2023-02-03T10:44:52;15.70;99.90
61004;DHT22;46889;37.310;13.582;2023-02-03T10:47:27;15.90;99.90
61004;DHT22;46889;37.310;13.582;2023-02-03T10:50:03;15.80;99.90
61004;DHT22;46889;37.310;13.582;2023-02-03T10:52:34;15.70;99.90
61004;DHT22;46889;37.310;13.582;2023-02-03T10:55:29;15.70;99.90
61004;DHT22;46889;37.310;13.582;2023-02-03T10:57:56;15.80;99.90
61004;DHT22;46889;37.310;13.582;2023-02-03T11:00:30;15.90;99.90
61004;DHT22;46889;37.310;13.582;2023-02-03T11:03:25;15.80;99.90
61004;DHT22;46889;37.310;13.582;2023-02-03T11:06:13;15.80;99.90
61004;DHT22;46889;37.310;13.582;2023-02-03T11:08:45;15.90;99.90
61004;DHT22;46889;37.310;13.582;2023-02-03T11:13:40;16.20;99.90
61004;DHT22;46889;37.310;13.582;2023-02-03T11:18:46;16.30;99.90
61004;DHT22;46889;37.310;13.582;2023-02-03T11:26:36;16.80;99.90
61004;DHT22;46889;37.310;13.582;2023-02-03T11:29:05;16.40;99.90
61004;DHT22;46889;37.310;13.582;2023-02-03T11:31:35;16.60;99.90
61004;DHT22;46889;37.310;13.582;2023-02-03T11:34:16;16.60;99.90
61004;DHT22;46889;37.310;13.582;2023-02-03T11:36:42;16.50;99.90
61004;DHT22;46889;37.310;13.582;2023-02-03T11:41:48;16.20;99.90
61004;DHT22;46889;37.310;13.582;2023-02-03T11:44:18;16.20;99.90
61004;DHT22;46889;37.310;13.582;2023-02-03T11:46:54;16.40;99.90
61004;DHT22;46889;37.310;13.582;2023-02-03T11:49:33;16.50;99.90
61004;DHT22;46889;37.310;13.582;2023-02-03T11:57:55;16.30;99.90
61004;DHT22;46889;37.310;13.582;2023-02-03T12:25:31;17.20;99.90
61004;DHT22;46889;37.310;13.582;2023-02-03T12:28:05;17.60;99.90
61004;DHT22;46889;37.310;13.582;2023-02-03T12:30:42;17.70;99.90
61004;DHT22;46889;37.310;13.582;2023-02-03T12:33:16;17.60;99.90
61004;DHT22;46889;37.310;13.582;2023-02-03T12:38:39;17.70;99.90
61004;DHT22;46889;37.310;13.582;2023-02-03T12:41:21;17.60;99.90
61004;DHT22;46889;37.310;13.582;2023-02-03T12:43:53;17.50;99.90
61004;DHT22;46889;37.310;13.582;2023-02-03T12:46:38;17.10;99.90
61004;DHT22;46889;37.310;13.582;2023-02-03T12:49:40;17.40;99.90
61004;DHT22;46889;37.310;13.582;2023-02-03T12:52:45;17.30;99.90
61004;DHT22;46889;37.310;13.582;2023-02-03T12:55:42;16.90;99.90
61004;DHT22;46889;37.310;13.582;2023-02-03T12:58:17;17.00;99.90
61004;DHT22;46889;37.310;13.582;2023-02-03T13:00:50;17.10;99.90
61004;DHT22;46889;37.310;13.582;2023-02-03T13:09:35;16.80;99.90
61004;DHT22;46889;37.310;13.582;2023-02-03T13:15:44;17.60;99.90
61004;DHT22;46889;37.310;13.582;2023-02-03T13:20:21;18.20;99.90
61004;DHT22;46889;37.310;13.582;2023-02-03T13:22:47;18.30;99.90
61004;DHT22;46889;37.310;13.582;2023-02-03T13:28:28;18.00;99.90
61004;DHT22;46889;37.310;13.582;2023-02-03T13:40:11;18.20;99.90
61004;DHT22;46889;37.310;13.582;2023-02-03T13:42:56;18.30;99.90
61004;DHT22;46889;37.310;13.582;2023-02-03T13:45:30;18.20;99.90
61004;DHT22;46889;37.310;13.582;2023-02-03T13:48:09;18.00;99.90
61004;DHT22;46889;37.310;13.582;2023-02-03T13:50:36;17.70;99.90
61004;DHT22;46889;37.310;13.582;2023-02-03T13:53:07;17.70;99.90
61004;DHT22;46889;37.310;13.582;2023-02-03T13:55:44;17.60;99.90
61004;DHT22;46889;37.310;13.582;2023-02-03T13:58:25;17.40;99.90
61004;DHT22;46889;37.310;13.582;2023-02-03T14:16:51;16.90;99.90
61004;DHT22;46889;37.310;13.582;2023-02-03T14:21:58;17.10;99.90
61004;DHT22;46889;37.310;13.582;2023-02-03T14:24:38;17.30;99.90
61004;DHT22;46889;37.310;13.582;2023-02-03T14:27:19;17.40;99.90
61004;DHT22;46889;37.310;13.582;2023-02-03T14:30:05;17.40;99.90
61004;DHT22;46889;37.310;13.582;2023-02-03T14:32:53;17.20;99.90
61004;DHT22;46889;37.310;13.582;2023-02-03T14:35:23;17.20;99.90
61004;DHT22;46889;37.310;13.582;2023-02-03T14:37:56;17.30;99.90
61004;DHT22;46889;37.310;13.582;2023-02-03T14:40:40;17.20;99.90
61004;DHT22;46889;37.310;13.582;2023-02-03T14:46:12;17.20;99.90
61004;DHT22;46889;37.310;13.582;2023-02-03T14:49:06;17.20;99.90
61004;DHT22;46889;37.310;13.582;2023-02-03T14:55:01;17.10;99.90
61004;DHT22;46889;37.310;13.582;2023-02-03T14:57:52;17.10;99.90
61004;DHT22;46889;37.310;13.582;2023-02-03T15:05:43;16.90;99.90
61004;DHT22;46889;37.310;13.582;2023-02-03T15:10:55;17.00;99.90
61004;DHT22;46889;37.310;13.582;2023-02-03T15:13:27;16.80;99.90
61004;DHT22;46889;37.310;13.582;2023-02-03T15:16:02;16.80;99.90
61004;DHT22;46889;37.310;13.582;2023-02-03T15:18:34;16.70;99.90
61004;DHT22;46889;37.310;13.582;2023-02-03T15:21:12;16.70;99.90
61004;DHT22;46889;37.310;13.582;2023-02-03T15:23:42;16.50;99.90
61004;DHT22;46889;37.310;13.582;2023-02-03T15:26:20;16.50;99.90
61004;DHT22;46889;37.310;13.582;2023-02-03T15:28:59;16.50;99.90
61004;DHT22;46889;37.310;13.582;2023-02-03T15:31:32;16.40;99.90
61004;DHT22;46889;37.310;13.582;2023-02-03T15:34:08;16.40;99.90
61004;DHT22;46889;37.310;13.582;2023-02-03T15:36:42;16.50;99.90
61004;DHT22;46889;37.310;13.582;2023-02-03T15:41:45;16.50;99.90
61004;DHT22;46889;37.310;13.582;2023-02-03T15:44:29;16.50;99.90
61004;DHT22;46889;37.310;13.582;2023-02-03T15:46:58;16.40;99.90
61004;DHT22;46889;37.310;13.582;2023-02-03T15:49:30;16.40;99.90
61004;DHT22;46889;37.310;13.582;2023-02-03T15:52:02;16.30;99.90
61004;DHT22;46889;37.310;13.582;2023-02-03T15:54:33;16.30;99.90
61004;DHT22;46889;37.310;13.582;2023-02-03T15:57:08;16.10;99.90
61004;DHT22;46889;37.310;13.582;2023-02-03T15:59:41;16.10;99.90
61004;DHT22;46889;37.310;13.582;2023-02-03T16:02:27;16.00;99.90
61004;DHT22;46889;37.310;13.582;2023-02-03T16:04:54;16.00;99.90
61004;DHT22;46889;37.310;13.582;2023-02-03T16:07:23;15.90;99.90
61004;DHT22;46889;37.310;13.582;2023-02-03T16:09:57;15.80;99.90
61004;DHT22;46889;37.310;13.582;2023-02-03T16:12:29;15.70;99.90
61004;DHT22;46889;37.310;13.582;2023-02-03T16:14:57;15.60;99.90
61004;DHT22;46889;37.310;13.582;2023-02-03T16:20:18;15.40;99.90
61004;DHT22;46889;37.310;13.582;2023-02-03T16:22:55;15.30;99.90
61004;DHT22;46889;37.310;13.582;2023-02-03T16:25:29;15.20;99.90
61004;DHT22;46889;37.310;13.582;2023-02-03T16:27:57;15.20;99.90
61004;DHT22;46889;37.310;13.582;2023-02-03T16:31:01;15.00;99.90
61004;DHT22;46889;37.310;13.582;2023-02-03T16:33:48;14.80;99.90
61004;DHT22;46889;37.310;13.582;2023-02-03T16:36:38;14.60;99.90
61004;DHT22;46889;37.310;13.582;2023-02-03T16:39:26;14.50;99.90
61004;DHT22;46889;37.310;13.582;2023-02-03T16:42:16;14.30;99.90
61004;DHT22;46889;37.310;13.582;2023-02-03T16:45:01;14.30;99.90
61004;DHT22;46889;37.310;13.582;2023-02-03T16:47:46;14.10;99.90
61004;DHT22;46889;37.310;13.582;2023-02-03T16:50:32;14.00;99.90
61004;DHT22;46889;37.310;13.582;2023-02-03T16:53:19;13.90;99.90
61004;DHT22;46889;37.310;13.582;2023-02-03T16:55:46;13.80;99.90
61004;DHT22;46889;37.310;13.582;2023-02-03T16:58:13;13.70;99.90
61004;DHT22;46889;37.310;13.582;2023-02-03T17:00:41;13.60;99.90
61004;DHT22;46889;37.310;13.582;2023-02-03T17:03:14;13.60;99.90
61004;DHT22;46889;37.310;13.582;2023-02-03T17:05:41;13.50;99.90
61004;DHT22;46889;37.310;13.582;2023-02-03T17:08:08;13.40;99.90
61004;DHT22;46889;37.310;13.582;2023-02-03T17:10:36;13.40;99.90
61004;DHT22;46889;37.310;13.582;2023-02-03T17:13:03;13.40;99.90
61004;DHT22;46889;37.310;13.582;2023-02-03T17:15:29;13.40;99.90
61004;DHT22;46889;37.310;13.582;2023-02-03T17:17:59;13.30;99.90
61004;DHT22;46889;37.310;13.582;2023-02-03T17:20:26;13.30;99.90
61004;DHT22;46889;37.310;13.582;2023-02-03T17:22:55;13.30;99.90
61004;DHT22;46889;37.310;13.582;2023-02-03T17:25:24;13.20;99.90
61004;DHT22;46889;37.310;13.582;2023-02-03T17:27:50;13.10;99.90
61004;DHT22;46889;37.310;13.582;2023-02-03T17:30:16;13.10;99.90
61004;DHT22;46889;37.310;13.582;2023-02-03T17:32:46;13.00;99.90
61004;DHT22;46889;37.310;13.582;2023-02-03T17:35:13;12.90;99.90
61004;DHT22;46889;37.310;13.582;2023-02-03T17:37:39;12.90;99.90
61004;DHT22;46889;37.310;13.582;2023-02-03T17:40:05;12.90;99.90
61004;DHT22;46889;37.310;13.582;2023-02-03T17:42:34;12.80;99.90
61004;DHT22;46889;37.310;13.582;2023-02-03T17:45:01;12.70;99.90
61004;DHT22;46889;37.310;13.582;2023-02-03T17:47:27;12.70;99.90
61004;DHT22;46889;37.310;13.582;2023-02-03T17:49:53;12.70;99.90
61004;DHT22;46889;37.310;13.582;2023-02-03T17:52:19;12.60;99.90
61004;DHT22;46889;37.310;13.582;2023-02-03T17:54:46;12.60;99.90
61004;DHT22;46889;37.310;13.582;2023-02-03T17:57:12;12.60;99.90
61004;DHT22;46889;37.310;13.582;2023-02-03T17:59:38;12.60;99.90
61004;DHT22;46889;37.310;13.582;2023-02-03T18:02:11;12.50;99.90
61004;DHT22;46889;37.310;13.582;2023-02-03T18:04:38;12.50;99.90
61004;DHT22;46889;37.310;13.582;2023-02-03T18:07:03;12.50;99.90
61004;DHT22;46889;37.310;13.582;2023-02-03T18:09:29;12.50;99.90
61004;DHT22;46889;37.310;13.582;2023-02-03T18:11:57;12.50;99.90
61004;DHT22;46889;37.310;13.582;2023-02-03T18:14:24;12.40;99.90
61004;DHT22;46889;37.310;13.582;2023-02-03T18:16:50;12.40;99.90
61004;DHT22;46889;37.310;13.582;2023-02-03T18:19:16;12.40;99.90